Airfield :
LOGIN :

Register | Disclaimer

   EN    FR    IT 

 










Legend :    VFR   Marginal VFR   IFR   Intensive IFR   Very Intensive IFR
Visi :
Ceiling :
>= 8 km
>= 3000ft
5 to 8 km
1000 to 3000 ft
1500m to 5 km
500 to 1000 ft
800 to 1500m
200 to 500 ft
< 800m
< 200 ft
Symbols :   Thunderstorms  Fog  Heavy snow  Heavy precipitations  Wind > 20 kt
SIGMETs :     Misc.  Thunderstorms  Icing  Turbulence  Mountain Waves  Volcanic Ashes






- Airport Elevation : 935 ft


EBFS - Florennes

CURRENT METAR :
  • 191755Z AUTO 22008KT 9000 -RA FEW014/// SCT018/// BKN050/// 04/03 Q1023 WHT

EXPIRED METARs :
  • 191753Z AUTO 22008KT 9000 -RA FEW014/// SCT018/// BKN050/// 04/03 Q1023 WHT
  • 191725Z AUTO 23010KT 9999 DZ FEW011/// SCT085/// BKN100/// 05/02 Q1023 BLU
  • 191655Z AUTO 23012KT 9999 -DZ FEW027/// SCT070/// BKN085/// 06/01 Q1023 BLU
  • 191625Z 23013KT 9999 SCT035 BKN050 06/00 Q1023 BLU BLU
  • 191555Z 24011KT 9999 SCT035 BKN150 06/M00 Q1022 BLU BLU
  • 191525Z 25011KT 9999 SCT035 BKN150 06/M01 Q1023 BLU BLU

TAF TAF EBFS
Valid from the 19 at 13:00 until the 19 at 22:00 UTC


191141Z 1913/1922 27012G23KT 9999 SCT025
TEMPO 1910/1912 FEW025
BECMG 1915/1917 24010G20KT BKN025 BKN080
BECMG 1917/1919 21010G20KT -RA BKN010



MET'MAP, your aeronautical weather chart ! - Copyright ORBIFLY December 2007 - Disclaimer

ORBIFLY MET'MAP TEAM :

Programming & Development : Alexandra Zaïnal
Concept & original design : Baudouin d'Aumeries
Assistance for programming : Marc-Olivier Méhu
Technical & hardware support : Manuel Goepfert

Contact : metmap@orbifly.com




SOURCES & CREDITS :

   NOAA